createdAt,value
2015-09-14T00:02:36.851Z,99195
2015-09-14T00:07:38.846Z,99183
2015-09-14T00:12:41.013Z,99188
2015-09-14T00:17:45.398Z,99169
2015-09-14T00:22:46.766Z,99181
2015-09-14T00:27:48.167Z,99172
2015-09-14T00:32:51.331Z,99173
2015-09-14T00:37:52.576Z,99173
2015-09-14T00:42:55.039Z,99163
2015-09-14T00:47:56.485Z,99152
2015-09-14T00:52:59.386Z,99142
2015-09-14T00:58:01.615Z,99142
2015-09-14T01:03:03.672Z,99152
2015-09-14T01:08:06.727Z,99150
2015-09-14T01:13:08.816Z,99171
2015-09-14T01:18:10.982Z,99159
2015-09-14T01:22:28.677Z,99162
2015-09-14T01:27:31.094Z,99181
2015-09-14T01:32:35.119Z,99173
2015-09-14T01:37:38.114Z,99173
2015-09-14T01:42:40.014Z,99172
2015-09-14T01:47:42.211Z,99167
2015-09-14T01:52:43.939Z,99145
2015-09-14T01:57:46.839Z,99157
2015-09-14T02:02:48.615Z,99158
2015-09-14T02:07:51.013Z,99145
2015-09-14T02:12:54.945Z,99150
2015-09-14T02:17:58.471Z,99146
2015-09-14T02:22:58.589Z,99142
2015-09-14T02:28:01.876Z,99148
2015-09-14T02:33:03.307Z,99145
2015-09-14T02:38:06.159Z,99146
2015-09-14T02:43:07.939Z,99151
2015-09-14T02:48:11.582Z,99148
2015-09-14T02:53:13.423Z,99136
2015-09-14T02:58:16.089Z,99139
2015-09-14T03:03:18.349Z,99133
2015-09-14T03:08:20.187Z,99130
2015-09-14T03:13:24.120Z,99124
2015-09-14T03:18:25.582Z,99107
2015-09-14T03:23:27.873Z,99094
2015-09-14T03:28:30.555Z,99087
2015-09-14T03:33:33.018Z,99057
2015-09-14T03:38:34.713Z,99016
2015-09-14T03:43:38.457Z,99042
2015-09-14T03:48:40.858Z,99090
2015-09-14T03:53:42.555Z,99089
2015-09-14T03:58:45.300Z,99109
2015-09-14T04:03:47.575Z,99117
2015-09-14T04:08:49.881Z,99123
2015-09-14T04:13:52.126Z,99137
2015-09-14T04:18:54.431Z,99143
2015-09-14T04:23:56.707Z,99129
2015-09-14T04:28:58.498Z,99156
2015-09-14T04:34:01.352Z,99142
2015-09-14T04:39:03.065Z,99142
2015-09-14T04:44:06.137Z,99166
2015-09-14T04:49:08.007Z,99185
2015-09-14T04:54:10.952Z,99180
2015-09-14T04:59:12.588Z,99195
2015-09-14T05:04:14.878Z,99183
2015-09-14T05:09:17.153Z,99180
2015-09-14T05:14:19.445Z,99196
2015-09-14T05:19:21.673Z,99177
2015-09-14T05:24:23.605Z,99177
2015-09-14T05:29:27.630Z,99163
2015-09-14T05:34:28.640Z,99182
2015-09-14T05:39:31.041Z,99158
2015-09-14T05:44:33.222Z,99170
2015-09-14T05:49:35.450Z,99182
2015-09-14T05:54:37.710Z,99174
2015-09-14T05:59:40.783Z,99168
2015-09-14T06:04:43.088Z,99171
2015-09-14T06:09:45.660Z,99163
2015-09-14T06:14:49.528Z,99160
2015-09-14T06:19:51.210Z,99146
2015-09-14T06:24:53.080Z,99136
2015-09-14T06:29:55.324Z,99149
2015-09-14T06:34:57.786Z,99168
2015-09-14T06:40:00.157Z,99161
2015-09-14T06:45:02.494Z,99161
2015-09-14T06:50:08.426Z,99147
2015-09-14T06:55:11.561Z,99158
2015-09-14T07:00:12.148Z,99149
2015-09-14T07:05:16.283Z,99162
2015-09-14T07:10:17.340Z,99168
2015-09-14T07:15:19.818Z,99177
2015-09-14T07:20:22.141Z,99168
2015-09-14T07:25:24.479Z,99182
2015-09-14T07:30:26.923Z,99190
2015-09-14T07:35:29.028Z,99192
2015-09-14T07:40:30.803Z,99198
2015-09-14T07:45:34.875Z,99195
2015-09-14T07:50:35.837Z,99206
2015-09-14T07:55:38.144Z,99206
2015-09-14T08:00:42.561Z,99214
2015-09-14T08:05:43.649Z,99211
2015-09-14T08:10:45.956Z,99214
2015-09-14T08:15:48.262Z,99203
2015-09-14T08:20:50.569Z,99209
2015-09-14T08:25:54.219Z,99221
2015-09-14T08:30:56.088Z,99224
2015-09-14T08:35:59.550Z,99231
2015-09-14T08:41:00.607Z,99230
2015-09-14T08:46:02.915Z,99224
2015-09-14T08:51:05.188Z,99213
2015-09-14T08:56:07.401Z,99218
2015-09-14T09:01:09.677Z,99219
2015-09-14T09:06:11.937Z,99227
2015-09-14T09:11:14.150Z,99225
2015-09-14T09:16:17.643Z,99225
2015-09-14T09:21:18.919Z,99217
2015-09-14T09:26:21.226Z,99218
2015-09-14T09:31:23.470Z,99195
2015-09-14T09:36:25.808Z,99205
2015-09-14T09:41:28.052Z,99215
2015-09-14T09:46:30.296Z,99190
2015-09-14T09:51:32.603Z,99198
2015-09-14T09:56:34.816Z,99185
2015-09-14T10:01:37.715Z,99180
2015-09-14T10:06:39.302Z,99170
2015-09-14T10:11:41.703Z,99180
2015-09-14T10:16:44.040Z,99166
2015-09-14T10:21:46.175Z,99160
2015-09-14T10:26:48.450Z,99154
2015-09-14T10:31:50.694Z,99147
2015-09-14T10:36:53.876Z,99132
2015-09-14T10:41:55.652Z,99132
2015-09-14T10:46:58.380Z,99119
2015-09-14T10:52:00.703Z,99111
2015-09-14T10:57:02.979Z,99099
2015-09-14T11:02:05.206Z,99093
2015-09-14T11:07:07.513Z,99101
2015-09-14T11:12:09.773Z,99087
2015-09-14T11:17:12.048Z,99087
2015-09-14T11:22:14.293Z,99090
2015-09-14T11:27:16.113Z,99080
2015-09-14T11:32:19.326Z,99077
2015-09-14T11:37:21.682Z,99081
2015-09-14T11:42:23.651Z,99066
2015-09-14T11:47:25.939Z,99062
2015-09-14T11:52:28.582Z,99069
2015-09-14T11:57:31.299Z,99056
2015-09-14T12:02:33.576Z,99054
2015-09-14T12:07:35.883Z,99053
2015-09-14T12:12:37.690Z,99063
2015-09-14T12:17:41.574Z,99067
2015-09-14T12:22:44.756Z,99054
2015-09-14T12:27:45.313Z,99064
2015-09-14T12:32:48.901Z,99058
2015-09-14T12:37:51.222Z,99037
2015-09-14T12:42:53.436Z,99028
2015-09-14T12:47:55.758Z,99006
2015-09-14T12:52:57.688Z,99005
2015-09-14T12:58:01.635Z,99002
2015-09-14T13:03:02.519Z,99012
2015-09-14T13:08:04.873Z,99003
2015-09-14T13:13:07.102Z,99008
2015-09-14T13:18:09.362Z,99005
2015-09-14T13:23:12.044Z,99000
2015-09-14T13:28:14.788Z,99012
2015-09-14T13:33:25.063Z,99018
2015-09-14T13:38:18.823Z,99018
2015-09-14T13:43:22.677Z,99050
2015-09-14T13:48:23.858Z,99067
2015-09-14T13:53:26.171Z,99152
2015-09-14T13:58:28.477Z,99254
2015-09-14T14:03:30.862Z,99316
2015-09-14T14:08:33.119Z,99327
2015-09-14T14:13:35.427Z,99323
2015-09-14T14:18:37.656Z,99322
2015-09-14T14:23:39.462Z,99313
2015-09-14T14:28:41.737Z,99277
2015-09-14T14:33:44.513Z,99289
2015-09-14T14:38:47.117Z,99287
2015-09-14T14:43:49.033Z,99298
2015-09-14T14:48:51.276Z,99299
2015-09-14T14:53:53.535Z,99321
2015-09-14T14:58:55.796Z,99311
2015-09-14T15:03:58.119Z,99345
2015-09-14T15:09:00.644Z,99326
2015-09-14T15:14:03.482Z,99332
2015-09-14T15:19:05.257Z,99344
2015-09-14T15:24:08.033Z,99329
2015-09-14T15:29:10.227Z,99315
2015-09-14T15:34:12.643Z,99304
2015-09-14T15:39:14.686Z,99289
2015-09-14T15:44:18.059Z,99300
2015-09-14T15:49:20.435Z,99324
2015-09-14T15:54:22.200Z,99326
2015-09-14T15:59:25.428Z,99318
2015-09-14T16:04:28.844Z,99324
2015-09-14T16:09:30.510Z,99314
2015-09-14T16:14:32.750Z,99308
2015-09-14T16:19:35.166Z,99317
2015-09-14T16:24:37.254Z,99321
2015-09-14T16:29:39.498Z,99314
2015-09-14T16:34:41.461Z,99331
2015-09-14T16:39:45.486Z,99326
2015-09-14T16:44:46.293Z,99316
2015-09-14T16:49:49.116Z,99324
2015-09-14T16:54:50.895Z,99337
2015-09-14T16:59:54.059Z,99346
2015-09-14T17:04:56.335Z,99367
2015-09-14T17:09:58.532Z,99371
2015-09-14T17:15:00.823Z,99395
2015-09-14T17:20:02.630Z,99389
2015-09-14T17:25:06.890Z,99383
2015-09-14T17:30:08.540Z,99381
2015-09-14T17:35:10.924Z,99388
2015-09-14T17:40:13.262Z,99385
2015-09-14T17:45:16.507Z,99395
2015-09-14T17:50:17.845Z,99400
2015-09-14T17:55:20.167Z,99406
2015-09-14T18:00:21.926Z,99434
2015-09-14T18:05:25.499Z,99428
2015-09-14T18:10:29.587Z,99420
2015-09-14T18:15:29.894Z,99428
2015-09-14T18:20:32.589Z,99429
2015-09-14T18:25:35.146Z,99451
2015-09-14T18:30:37.094Z,99454
2015-09-14T18:35:38.915Z,99456
2015-09-14T18:40:41.660Z,99454
2015-09-14T18:45:43.888Z,99468
2015-09-14T18:50:46.711Z,99470
2015-09-14T18:55:47.955Z,99491
2015-09-14T19:00:50.761Z,99488
2015-09-14T19:05:53.459Z,99485
2015-09-14T19:10:55.281Z,99480
2015-09-14T19:15:57.588Z,99483
2015-09-14T19:20:59.800Z,99471
2015-09-14T19:26:02.136Z,99483
2015-09-14T19:31:04.537Z,99493
2015-09-14T19:36:06.656Z,99493
2015-09-14T19:41:08.573Z,99493
2015-09-14T19:46:11.457Z,99502
2015-09-14T19:51:13.545Z,99508
2015-09-14T19:56:15.836Z,99521
2015-09-14T20:01:18.971Z,99521
2015-09-14T20:06:21.168Z,99524
2015-09-14T20:11:23.444Z,99532
2015-09-14T20:16:25.766Z,99536
2015-09-14T20:21:28.010Z,99542
2015-09-14T20:26:33.379Z,99545
2015-09-14T20:31:36.733Z,99576
2015-09-14T20:36:38.306Z,99573
2015-09-14T20:41:41.840Z,99575
2015-09-14T20:46:43.129Z,99582
2015-09-14T20:51:45.387Z,99589
2015-09-14T20:56:47.741Z,99594
2015-09-14T21:01:50.335Z,99594
2015-09-14T21:06:53.816Z,99588
2015-09-14T21:11:55.684Z,99593
2015-09-14T21:16:57.695Z,99594
2015-09-14T21:21:59.485Z,99599
2015-09-14T21:27:01.793Z,99587
2015-09-14T21:32:04.490Z,99580
2015-09-14T21:37:06.874Z,99587
2015-09-14T21:42:09.135Z,99593
2015-09-14T21:47:10.956Z,99608
2015-09-14T21:52:13.669Z,99609
2015-09-14T21:57:15.897Z,99607
2015-09-14T22:02:18.314Z,99615
2015-09-14T22:07:20.558Z,99612
2015-09-14T22:12:22.271Z,99632
2015-09-14T22:17:25.031Z,99628
2015-09-14T22:22:27.307Z,99624
2015-09-14T22:27:29.533Z,99625
2015-09-14T22:32:31.793Z,99624
2015-09-14T22:37:34.115Z,99624
2015-09-14T22:42:36.562Z,99611
2015-09-14T22:47:40.853Z,99621
2015-09-14T22:52:42.269Z,99614
2015-09-14T22:57:44.294Z,99611
2015-09-14T23:02:46.039Z,99611
2015-09-14T23:07:49.173Z,99614
2015-09-14T23:12:50.620Z,99612
2015-09-14T23:17:53.224Z,99602
2015-09-14T23:22:55.562Z,99614
2015-09-14T23:27:57.385Z,99605
2015-09-14T23:33:00.597Z,99617
2015-09-14T23:38:02.716Z,99621
2015-09-14T23:43:05.570Z,99624
2015-09-14T23:48:07.814Z,99627
2015-09-14T23:53:10.106Z,99633
2015-09-14T23:58:12.364Z,99620
